International Virtual Aviation Organisation

Eastern Europe and Northern Asia MCD

 
UARR 101100Z 14012MPS CAVOK 26/06 Q1019 R04/CLRD70 TEMPO 14010G17MPS RMK QFE761/1014
QNH:(hPa/inHg/mmHg)1019 / 30.09 / 764
QFE:(hPa/inHg/mmHg)1014 / 29.95 / 761
Temperature26
Dew Point6
Visibility> 10000
WeatherCAVOK
Cloud Cover
Transition Height1770 m./6000 ft.
Transition LevelFL70
SQUAWK